sensor_id;sensor_type;location;lat;lon;timestamp;temperature;humidity
55173;DHT22;41061;52.822;6.860;2023-09-30T00:00:47;11.00;99.90
55173;DHT22;41061;52.822;6.860;2023-09-30T00:03:12;11.00;99.90
55173;DHT22;41061;52.822;6.860;2023-09-30T00:05:38;11.10;99.90
55173;DHT22;41061;52.822;6.860;2023-09-30T00:08:04;11.00;99.90
55173;DHT22;41061;52.822;6.860;2023-09-30T00:10:30;11.00;99.90
55173;DHT22;41061;52.822;6.860;2023-09-30T00:12:59;11.00;99.90
55173;DHT22;41061;52.822;6.860;2023-09-30T00:15:25;11.00;99.90
55173;DHT22;41061;52.822;6.860;2023-09-30T00:17:51;11.00;99.90
55173;DHT22;41061;52.822;6.860;2023-09-30T00:20:16;11.00;99.90
55173;DHT22;41061;52.822;6.860;2023-09-30T00:22:43;11.00;99.90
55173;DHT22;41061;52.822;6.860;2023-09-30T00:25:09;11.00;99.90
55173;DHT22;41061;52.822;6.860;2023-09-30T00:27:36;11.00;99.90
55173;DHT22;41061;52.822;6.860;2023-09-30T00:30:02;11.00;99.90
55173;DHT22;41061;52.822;6.860;2023-09-30T00:32:28;11.00;99.90
55173;DHT22;41061;52.822;6.860;2023-09-30T00:34:54;11.00;99.90
55173;DHT22;41061;52.822;6.860;2023-09-30T00:37:20;11.00;99.90
55173;DHT22;41061;52.822;6.860;2023-09-30T00:39:46;11.00;99.90
55173;DHT22;41061;52.822;6.860;2023-09-30T00:42:12;11.00;99.90
55173;DHT22;41061;52.822;6.860;2023-09-30T00:44:38;11.00;99.90
55173;DHT22;41061;52.822;6.860;2023-09-30T00:47:04;11.00;99.90
55173;DHT22;41061;52.822;6.860;2023-09-30T00:49:31;11.00;99.90
55173;DHT22;41061;52.822;6.860;2023-09-30T00:51:58;11.00;99.90
55173;DHT22;41061;52.822;6.860;2023-09-30T00:54:26;11.00;99.90
55173;DHT22;41061;52.822;6.860;2023-09-30T00:56:54;11.10;99.90
55173;DHT22;41061;52.822;6.860;2023-09-30T00:59:21;11.10;99.90
55173;DHT22;41061;52.822;6.860;2023-09-30T01:01:48;11.10;99.90
55173;DHT22;41061;52.822;6.860;2023-09-30T01:04:15;11.10;99.90
55173;DHT22;41061;52.822;6.860;2023-09-30T01:06:41;11.10;99.90
55173;DHT22;41061;52.822;6.860;2023-09-30T01:09:10;11.10;99.90
55173;DHT22;41061;52.822;6.860;2023-09-30T01:11:38;11.10;99.90
55173;DHT22;41061;52.822;6.860;2023-09-30T01:14:09;11.20;99.90
55173;DHT22;41061;52.822;6.860;2023-09-30T01:16:48;11.20;99.90
55173;DHT22;41061;52.822;6.860;2023-09-30T01:19:14;11.20;99.90
55173;DHT22;41061;52.822;6.860;2023-09-30T01:21:40;11.20;99.90
55173;DHT22;41061;52.822;6.860;2023-09-30T01:24:07;11.30;99.90
55173;DHT22;41061;52.822;6.860;2023-09-30T01:26:33;11.30;99.90
55173;DHT22;41061;52.822;6.860;2023-09-30T01:28:59;11.30;99.90
55173;DHT22;41061;52.822;6.860;2023-09-30T01:31:24;11.30;99.90
55173;DHT22;41061;52.822;6.860;2023-09-30T01:33:50;11.30;99.90
55173;DHT22;41061;52.822;6.860;2023-09-30T01:36:19;11.30;99.90
55173;DHT22;41061;52.822;6.860;2023-09-30T01:38:45;11.40;99.90
55173;DHT22;41061;52.822;6.860;2023-09-30T01:41:11;11.40;99.90
55173;DHT22;41061;52.822;6.860;2023-09-30T01:43:37;11.40;99.90
55173;DHT22;41061;52.822;6.860;2023-09-30T01:46:03;11.50;99.90
55173;DHT22;41061;52.822;6.860;2023-09-30T01:48:30;11.50;99.90
55173;DHT22;41061;52.822;6.860;2023-09-30T01:50:56;11.50;99.90
55173;DHT22;41061;52.822;6.860;2023-09-30T01:53:22;11.50;99.90
55173;DHT22;41061;52.822;6.860;2023-09-30T01:55:47;11.50;99.90
55173;DHT22;41061;52.822;6.860;2023-09-30T01:58:13;11.50;99.90
55173;DHT22;41061;52.822;6.860;2023-09-30T02:00:39;11.50;99.90
55173;DHT22;41061;52.822;6.860;2023-09-30T02:03:05;11.50;99.90
55173;DHT22;41061;52.822;6.860;2023-09-30T02:05:30;11.50;99.90
55173;DHT22;41061;52.822;6.860;2023-09-30T02:07:56;11.50;99.90
55173;DHT22;41061;52.822;6.860;2023-09-30T02:10:22;11.50;99.90
55173;DHT22;41061;52.822;6.860;2023-09-30T02:12:48;11.50;99.90
55173;DHT22;41061;52.822;6.860;2023-09-30T02:15:14;11.40;99.90
55173;DHT22;41061;52.822;6.860;2023-09-30T02:17:40;11.40;99.90
55173;DHT22;41061;52.822;6.860;2023-09-30T02:20:11;11.40;99.90
55173;DHT22;41061;52.822;6.860;2023-09-30T02:22:41;11.40;99.90
55173;DHT22;41061;52.822;6.860;2023-09-30T02:25:07;11.30;99.90
55173;DHT22;41061;52.822;6.860;2023-09-30T02:27:33;11.30;99.90
55173;DHT22;41061;52.822;6.860;2023-09-30T02:29:59;11.30;99.90
55173;DHT22;41061;52.822;6.860;2023-09-30T02:32:25;11.20;99.90
55173;DHT22;41061;52.822;6.860;2023-09-30T02:34:51;11.20;99.90
55173;DHT22;41061;52.822;6.860;2023-09-30T02:37:17;11.20;99.90
55173;DHT22;41061;52.822;6.860;2023-09-30T02:39:44;11.20;99.90
55173;DHT22;41061;52.822;6.860;2023-09-30T02:42:10;11.20;99.90
55173;DHT22;41061;52.822;6.860;2023-09-30T02:44:36;11.10;99.90
55173;DHT22;41061;52.822;6.860;2023-09-30T02:47:01;11.10;99.90
55173;DHT22;41061;52.822;6.860;2023-09-30T02:49:27;11.10;99.90
55173;DHT22;41061;52.822;6.860;2023-09-30T02:51:53;11.10;99.90
55173;DHT22;41061;52.822;6.860;2023-09-30T02:54:19;11.10;99.90
55173;DHT22;41061;52.822;6.860;2023-09-30T02:56:44;11.10;99.90
55173;DHT22;41061;52.822;6.860;2023-09-30T02:59:13;11.10;99.90
55173;DHT22;41061;52.822;6.860;2023-09-30T03:01:40;11.10;99.90
55173;DHT22;41061;52.822;6.860;2023-09-30T03:04:06;11.10;99.90
55173;DHT22;41061;52.822;6.860;2023-09-30T03:06:36;11.10;99.90
55173;DHT22;41061;52.822;6.860;2023-09-30T03:09:03;11.10;99.90
55173;DHT22;41061;52.822;6.860;2023-09-30T03:11:30;11.10;99.90
55173;DHT22;41061;52.822;6.860;2023-09-30T03:13:57;11.10;99.90
55173;DHT22;41061;52.822;6.860;2023-09-30T03:16:23;11.10;99.90
55173;DHT22;41061;52.822;6.860;2023-09-30T03:18:50;11.10;99.90
55173;DHT22;41061;52.822;6.860;2023-09-30T03:21:16;11.10;99.90
55173;DHT22;41061;52.822;6.860;2023-09-30T03:23:43;11.10;99.90
55173;DHT22;41061;52.822;6.860;2023-09-30T03:26:09;11.10;99.90
55173;DHT22;41061;52.822;6.860;2023-09-30T03:28:38;11.10;99.90
55173;DHT22;41061;52.822;6.860;2023-09-30T03:31:05;11.10;99.90
55173;DHT22;41061;52.822;6.860;2023-09-30T03:33:35;11.10;99.90
55173;DHT22;41061;52.822;6.860;2023-09-30T03:36:00;11.10;99.90
55173;DHT22;41061;52.822;6.860;2023-09-30T03:38:26;11.10;99.90
55173;DHT22;41061;52.822;6.860;2023-09-30T03:40:52;11.10;99.90
55173;DHT22;41061;52.822;6.860;2023-09-30T03:43:21;11.20;99.90
55173;DHT22;41061;52.822;6.860;2023-09-30T03:45:46;11.10;99.90
55173;DHT22;41061;52.822;6.860;2023-09-30T03:48:12;11.10;99.90
55173;DHT22;41061;52.822;6.860;2023-09-30T03:50:38;11.10;99.90
55173;DHT22;41061;52.822;6.860;2023-09-30T03:53:05;11.10;99.90
55173;DHT22;41061;52.822;6.860;2023-09-30T03:55:33;11.10;99.90
55173;DHT22;41061;52.822;6.860;2023-09-30T03:57:59;11.10;99.90
55173;DHT22;41061;52.822;6.860;2023-09-30T04:00:25;11.10;99.90
55173;DHT22;41061;52.822;6.860;2023-09-30T04:02:52;11.10;99.90
55173;DHT22;41061;52.822;6.860;2023-09-30T04:05:24;11.10;99.90
55173;DHT22;41061;52.822;6.860;2023-09-30T04:07:59;11.10;99.90
55173;DHT22;41061;52.822;6.860;2023-09-30T04:10:25;11.10;99.90
55173;DHT22;41061;52.822;6.860;2023-09-30T04:12:51;11.10;99.90
55173;DHT22;41061;52.822;6.860;2023-09-30T04:15:17;11.10;99.90
55173;DHT22;41061;52.822;6.860;2023-09-30T04:17:44;11.10;99.90
55173;DHT22;41061;52.822;6.860;2023-09-30T04:20:11;11.10;99.90
55173;DHT22;41061;52.822;6.860;2023-09-30T04:22:41;11.10;99.90
55173;DHT22;41061;52.822;6.860;2023-09-30T04:25:14;11.10;99.90
55173;DHT22;41061;52.822;6.860;2023-09-30T04:27:42;11.10;99.90
55173;DHT22;41061;52.822;6.860;2023-09-30T04:30:08;11.10;99.90
55173;DHT22;41061;52.822;6.860;2023-09-30T04:32:38;11.10;99.90
55173;DHT22;41061;52.822;6.860;2023-09-30T04:35:05;11.10;99.90
55173;DHT22;41061;52.822;6.860;2023-09-30T04:37:30;11.20;99.90
55173;DHT22;41061;52.822;6.860;2023-09-30T04:39:56;11.20;99.90
55173;DHT22;41061;52.822;6.860;2023-09-30T04:42:24;11.20;99.90
55173;DHT22;41061;52.822;6.860;2023-09-30T04:44:52;11.20;99.90
55173;DHT22;41061;52.822;6.860;2023-09-30T04:47:18;11.20;99.90
55173;DHT22;41061;52.822;6.860;2023-09-30T04:49:44;11.20;99.90
55173;DHT22;41061;52.822;6.860;2023-09-30T04:52:10;11.20;99.90
55173;DHT22;41061;52.822;6.860;2023-09-30T04:54:37;11.20;99.90
55173;DHT22;41061;52.822;6.860;2023-09-30T04:57:02;11.20;99.90
55173;DHT22;41061;52.822;6.860;2023-09-30T04:59:28;11.20;99.90
55173;DHT22;41061;52.822;6.860;2023-09-30T05:01:55;11.20;99.90
55173;DHT22;41061;52.822;6.860;2023-09-30T05:04:22;11.20;99.90
55173;DHT22;41061;52.822;6.860;2023-09-30T05:06:51;11.20;99.90
55173;DHT22;41061;52.822;6.860;2023-09-30T05:09:17;11.20;99.90
55173;DHT22;41061;52.822;6.860;2023-09-30T05:11:42;11.20;99.90
55173;DHT22;41061;52.822;6.860;2023-09-30T05:14:09;11.20;99.90
55173;DHT22;41061;52.822;6.860;2023-09-30T05:16:35;11.20;99.90
55173;DHT22;41061;52.822;6.860;2023-09-30T05:19:01;11.20;99.90
55173;DHT22;41061;52.822;6.860;2023-09-30T05:21:26;11.20;99.90
55173;DHT22;41061;52.822;6.860;2023-09-30T05:23:52;11.20;99.90
55173;DHT22;41061;52.822;6.860;2023-09-30T05:26:18;11.20;99.90
55173;DHT22;41061;52.822;6.860;2023-09-30T05:28:44;11.20;99.90
55173;DHT22;41061;52.822;6.860;2023-09-30T05:31:09;11.20;99.90
55173;DHT22;41061;52.822;6.860;2023-09-30T05:33:36;11.20;99.90
55173;DHT22;41061;52.822;6.860;2023-09-30T05:36:03;11.20;99.90
55173;DHT22;41061;52.822;6.860;2023-09-30T05:38:29;11.20;99.90
55173;DHT22;41061;52.822;6.860;2023-09-30T05:40:56;11.20;99.90
55173;DHT22;41061;52.822;6.860;2023-09-30T05:43:25;11.20;99.90
55173;DHT22;41061;52.822;6.860;2023-09-30T05:45:52;11.20;99.90
55173;DHT22;41061;52.822;6.860;2023-09-30T05:48:23;11.20;99.90
55173;DHT22;41061;52.822;6.860;2023-09-30T05:50:49;11.20;99.90
55173;DHT22;41061;52.822;6.860;2023-09-30T05:53:15;11.20;99.90
55173;DHT22;41061;52.822;6.860;2023-09-30T05:55:41;11.20;99.90
55173;DHT22;41061;52.822;6.860;2023-09-30T05:58:13;11.20;99.90
55173;DHT22;41061;52.822;6.860;2023-09-30T06:00:40;11.10;99.90
55173;DHT22;41061;52.822;6.860;2023-09-30T06:03:07;11.10;99.90
55173;DHT22;41061;52.822;6.860;2023-09-30T06:05:33;11.10;99.90
55173;DHT22;41061;52.822;6.860;2023-09-30T06:08:01;11.10;99.90
55173;DHT22;41061;52.822;6.860;2023-09-30T06:10:28;11.10;99.90
55173;DHT22;41061;52.822;6.860;2023-09-30T06:12:56;11.10;99.90
55173;DHT22;41061;52.822;6.860;2023-09-30T06:15:25;11.20;99.90
55173;DHT22;41061;52.822;6.860;2023-09-30T06:17:56;11.20;99.90
55173;DHT22;41061;52.822;6.860;2023-09-30T06:20:21;11.20;99.90
55173;DHT22;41061;52.822;6.860;2023-09-30T06:22:56;11.20;99.90
55173;DHT22;41061;52.822;6.860;2023-09-30T06:25:22;11.20;99.90
55173;DHT22;41061;52.822;6.860;2023-09-30T06:27:53;11.30;99.90
55173;DHT22;41061;52.822;6.860;2023-09-30T06:30:23;11.30;99.90
55173;DHT22;41061;52.822;6.860;2023-09-30T06:32:58;11.40;99.90
55173;DHT22;41061;52.822;6.860;2023-09-30T06:35:28;11.40;99.90
55173;DHT22;41061;52.822;6.860;2023-09-30T06:38:02;11.40;99.90
55173;DHT22;41061;52.822;6.860;2023-09-30T06:40:28;11.50;99.90
55173;DHT22;41061;52.822;6.860;2023-09-30T06:42:54;11.60;99.90
55173;DHT22;41061;52.822;6.860;2023-09-30T06:45:20;11.60;99.90
55173;DHT22;41061;52.822;6.860;2023-09-30T06:47:47;11.60;99.90
55173;DHT22;41061;52.822;6.860;2023-09-30T06:50:13;11.70;99.90
55173;DHT22;41061;52.822;6.860;2023-09-30T06:52:43;11.80;99.90
55173;DHT22;41061;52.822;6.860;2023-09-30T06:55:11;11.90;99.90
55173;DHT22;41061;52.822;6.860;2023-09-30T06:57:39;11.90;99.90
55173;DHT22;41061;52.822;6.860;2023-09-30T07:00:13;12.00;99.90
55173;DHT22;41061;52.822;6.860;2023-09-30T07:02:40;12.10;99.90
55173;DHT22;41061;52.822;6.860;2023-09-30T07:05:08;12.10;99.90
55173;DHT22;41061;52.822;6.860;2023-09-30T07:07:34;12.20;99.90
55173;DHT22;41061;52.822;6.860;2023-09-30T07:09:59;12.30;99.90
55173;DHT22;41061;52.822;6.860;2023-09-30T07:12:25;12.40;99.90
55173;DHT22;41061;52.822;6.860;2023-09-30T07:41:38;13.40;99.90
55173;DHT22;41061;52.822;6.860;2023-09-30T07:44:04;13.50;99.90
55173;DHT22;41061;52.822;6.860;2023-09-30T07:46:31;13.60;99.90
55173;DHT22;41061;52.822;6.860;2023-09-30T07:48:56;13.70;99.90
55173;DHT22;41061;52.822;6.860;2023-09-30T07:51:24;13.80;99.90
55173;DHT22;41061;52.822;6.860;2023-09-30T07:53:50;13.90;99.90
55173;DHT22;41061;52.822;6.860;2023-09-30T07:56:16;13.90;99.90
55173;DHT22;41061;52.822;6.860;2023-09-30T07:58:42;14.00;99.90
55173;DHT22;41061;52.822;6.860;2023-09-30T08:01:08;14.10;99.90
55173;DHT22;41061;52.822;6.860;2023-09-30T08:03:33;14.20;99.90
55173;DHT22;41061;52.822;6.860;2023-09-30T08:06:00;14.30;99.90
55173;DHT22;41061;52.822;6.860;2023-09-30T08:08:26;14.40;99.90
55173;DHT22;41061;52.822;6.860;2023-09-30T08:10:51;14.50;99.90
55173;DHT22;41061;52.822;6.860;2023-09-30T08:13:22;14.50;99.90
55173;DHT22;41061;52.822;6.860;2023-09-30T08:15:49;14.60;99.90
55173;DHT22;41061;52.822;6.860;2023-09-30T08:18:16;14.70;99.90
55173;DHT22;41061;52.822;6.860;2023-09-30T08:20:41;14.70;99.90
55173;DHT22;41061;52.822;6.860;2023-09-30T08:23:07;14.70;99.90
55173;DHT22;41061;52.822;6.860;2023-09-30T08:25:33;14.80;99.90
55173;DHT22;41061;52.822;6.860;2023-09-30T08:27:58;14.90;99.90
55173;DHT22;41061;52.822;6.860;2023-09-30T08:30:24;15.00;99.90
55173;DHT22;41061;52.822;6.860;2023-09-30T08:35:16;15.30;99.90
55173;DHT22;41061;52.822;6.860;2023-09-30T08:37:41;15.30;99.90
55173;DHT22;41061;52.822;6.860;2023-09-30T08:40:08;15.40;99.90
55173;DHT22;41061;52.822;6.860;2023-09-30T08:42:35;15.50;99.90
55173;DHT22;41061;52.822;6.860;2023-09-30T08:45:02;15.60;99.90
55173;DHT22;41061;52.822;6.860;2023-09-30T08:47:29;15.70;99.90
55173;DHT22;41061;52.822;6.860;2023-09-30T08:49:58;15.80;99.90
55173;DHT22;41061;52.822;6.860;2023-09-30T08:52:32;15.90;99.90
55173;DHT22;41061;52.822;6.860;2023-09-30T08:54:59;16.10;99.90
55173;DHT22;41061;52.822;6.860;2023-09-30T08:57:25;16.20;99.90
55173;DHT22;41061;52.822;6.860;2023-09-30T08:59:53;16.30;99.90
55173;DHT22;41061;52.822;6.860;2023-09-30T09:02:19;16.50;99.90
55173;DHT22;41061;52.822;6.860;2023-09-30T09:04:47;16.60;99.90
55173;DHT22;41061;52.822;6.860;2023-09-30T09:07:14;16.70;99.90
55173;DHT22;41061;52.822;6.860;2023-09-30T09:09:40;16.70;99.90
55173;DHT22;41061;52.822;6.860;2023-09-30T09:27:10;17.70;99.90
55173;DHT22;41061;52.822;6.860;2023-09-30T09:29:37;17.70;99.90
55173;DHT22;41061;52.822;6.860;2023-09-30T09:32:14;17.60;99.90
55173;DHT22;41061;52.822;6.860;2023-09-30T09:34:41;17.50;99.90
55173;DHT22;41061;52.822;6.860;2023-09-30T09:39:55;17.70;99.90
55173;DHT22;41061;52.822;6.860;2023-09-30T09:42:30;17.80;99.90
55173;DHT22;41061;52.822;6.860;2023-09-30T09:44:59;17.80;99.90
55173;DHT22;41061;52.822;6.860;2023-09-30T09:47:25;17.80;99.90
55173;DHT22;41061;52.822;6.860;2023-09-30T09:49:51;17.90;99.90
55173;DHT22;41061;52.822;6.860;2023-09-30T09:52:21;18.00;99.90
55173;DHT22;41061;52.822;6.860;2023-09-30T09:54:48;18.10;99.90
55173;DHT22;41061;52.822;6.860;2023-09-30T09:57:16;18.20;99.90
55173;DHT22;41061;52.822;6.860;2023-09-30T09:59:43;18.20;99.90
55173;DHT22;41061;52.822;6.860;2023-09-30T10:02:13;18.20;99.90
55173;DHT22;41061;52.822;6.860;2023-09-30T10:04:44;18.30;99.90
55173;DHT22;41061;52.822;6.860;2023-09-30T10:07:22;18.50;99.90
55173;DHT22;41061;52.822;6.860;2023-09-30T10:09:51;18.50;99.90
55173;DHT22;41061;52.822;6.860;2023-09-30T10:12:19;18.50;99.90
55173;DHT22;41061;52.822;6.860;2023-09-30T10:14:46;18.60;99.90
55173;DHT22;41061;52.822;6.860;2023-09-30T10:17:13;18.70;99.90
55173;DHT22;41061;52.822;6.860;2023-09-30T10:22:30;18.70;99.90
55173;DHT22;41061;52.822;6.860;2023-09-30T10:24:57;18.80;99.90
55173;DHT22;41061;52.822;6.860;2023-09-30T10:30:06;19.00;99.90
55173;DHT22;41061;52.822;6.860;2023-09-30T10:35:20;19.10;99.90
55173;DHT22;41061;52.822;6.860;2023-09-30T10:37:46;19.30;99.90
55173;DHT22;41061;52.822;6.860;2023-09-30T10:40:29;19.40;99.90
55173;DHT22;41061;52.822;6.860;2023-09-30T10:42:56;19.50;99.90
55173;DHT22;41061;52.822;6.860;2023-09-30T10:45:52;19.50;99.90
55173;DHT22;41061;52.822;6.860;2023-09-30T10:51:18;19.60;99.90
55173;DHT22;41061;52.822;6.860;2023-09-30T10:53:50;19.60;99.90
55173;DHT22;41061;52.822;6.860;2023-09-30T10:56:18;19.70;99.90
55173;DHT22;41061;52.822;6.860;2023-09-30T10:58:51;19.80;99.90
55173;DHT22;41061;52.822;6.860;2023-09-30T11:01:22;20.00;99.90
55173;DHT22;41061;52.822;6.860;2023-09-30T11:03:49;20.20;99.90
55173;DHT22;41061;52.822;6.860;2023-09-30T11:06:19;20.30;99.90
55173;DHT22;41061;52.822;6.860;2023-09-30T11:08:53;20.40;99.90
55173;DHT22;41061;52.822;6.860;2023-09-30T11:11:19;20.40;99.90
55173;DHT22;41061;52.822;6.860;2023-09-30T11:13:56;20.20;99.90
55173;DHT22;41061;52.822;6.860;2023-09-30T11:16:22;20.10;99.90
55173;DHT22;41061;52.822;6.860;2023-09-30T11:18:53;20.10;99.90
55173;DHT22;41061;52.822;6.860;2023-09-30T11:21:19;19.90;99.90
55173;DHT22;41061;52.822;6.860;2023-09-30T11:23:45;19.70;99.90
55173;DHT22;41061;52.822;6.860;2023-09-30T11:26:11;19.60;99.90
55173;DHT22;41061;52.822;6.860;2023-09-30T11:28:44;19.60;99.90
55173;DHT22;41061;52.822;6.860;2023-09-30T11:31:13;19.50;99.90
55173;DHT22;41061;52.822;6.860;2023-09-30T11:46:56;19.90;99.90
55173;DHT22;41061;52.822;6.860;2023-09-30T11:49:34;19.90;99.90
55173;DHT22;41061;52.822;6.860;2023-09-30T11:52:02;19.80;99.90
55173;DHT22;41061;52.822;6.860;2023-09-30T11:54:33;19.60;99.90
55173;DHT22;41061;52.822;6.860;2023-09-30T11:57:00;19.60;99.90
55173;DHT22;41061;52.822;6.860;2023-09-30T11:59:27;19.60;99.90
55173;DHT22;41061;52.822;6.860;2023-09-30T12:01:52;19.80;99.90
55173;DHT22;41061;52.822;6.860;2023-09-30T12:04:18;20.00;99.90
55173;DHT22;41061;52.822;6.860;2023-09-30T12:06:48;20.00;99.90
55173;DHT22;41061;52.822;6.860;2023-09-30T12:09:15;20.10;99.90
55173;DHT22;41061;52.822;6.860;2023-09-30T12:11:42;20.10;99.90
55173;DHT22;41061;52.822;6.860;2023-09-30T12:14:10;20.10;99.90
55173;DHT22;41061;52.822;6.860;2023-09-30T12:16:37;20.10;99.90
55173;DHT22;41061;52.822;6.860;2023-09-30T12:19:03;20.00;99.90
55173;DHT22;41061;52.822;6.860;2023-09-30T12:21:28;19.80;99.90
55173;DHT22;41061;52.822;6.860;2023-09-30T12:23:54;19.70;99.90
55173;DHT22;41061;52.822;6.860;2023-09-30T12:26:20;19.80;99.90
55173;DHT22;41061;52.822;6.860;2023-09-30T12:28:46;19.80;99.90
55173;DHT22;41061;52.822;6.860;2023-09-30T12:31:14;19.80;99.90
55173;DHT22;41061;52.822;6.860;2023-09-30T12:33:41;19.60;99.90
55173;DHT22;41061;52.822;6.860;2023-09-30T12:36:06;19.40;99.90
55173;DHT22;41061;52.822;6.860;2023-09-30T12:38:33;19.20;99.90
55173;DHT22;41061;52.822;6.860;2023-09-30T12:40:59;19.10;99.90
55173;DHT22;41061;52.822;6.860;2023-09-30T12:43:26;19.10;99.90
55173;DHT22;41061;52.822;6.860;2023-09-30T12:45:52;19.30;99.90
55173;DHT22;41061;52.822;6.860;2023-09-30T12:48:17;19.50;99.90
55173;DHT22;41061;52.822;6.860;2023-09-30T12:50:44;19.80;99.90
55173;DHT22;41061;52.822;6.860;2023-09-30T12:53:10;20.10;99.90
55173;DHT22;41061;52.822;6.860;2023-09-30T12:55:35;20.40;99.90
55173;DHT22;41061;52.822;6.860;2023-09-30T12:58:01;20.50;99.90
55173;DHT22;41061;52.822;6.860;2023-09-30T13:00:27;20.50;99.90
55173;DHT22;41061;52.822;6.860;2023-09-30T13:02:56;20.40;99.90
55173;DHT22;41061;52.822;6.860;2023-09-30T13:05:22;20.40;99.90
55173;DHT22;41061;52.822;6.860;2023-09-30T13:07:48;20.30;99.90
55173;DHT22;41061;52.822;6.860;2023-09-30T13:10:14;20.30;99.90
55173;DHT22;41061;52.822;6.860;2023-09-30T13:12:40;20.30;99.90
55173;DHT22;41061;52.822;6.860;2023-09-30T13:15:06;20.20;99.90
55173;DHT22;41061;52.822;6.860;2023-09-30T13:17:32;20.10;99.90
55173;DHT22;41061;52.822;6.860;2023-09-30T13:19:58;20.00;99.90
55173;DHT22;41061;52.822;6.860;2023-09-30T13:22:24;19.80;99.90
55173;DHT22;41061;52.822;6.860;2023-09-30T13:24:49;19.70;99.90
55173;DHT22;41061;52.822;6.860;2023-09-30T13:27:16;19.70;99.90
55173;DHT22;41061;52.822;6.860;2023-09-30T13:29:43;19.80;99.90
55173;DHT22;41061;52.822;6.860;2023-09-30T13:32:09;19.70;99.90
55173;DHT22;41061;52.822;6.860;2023-09-30T13:34:36;19.60;99.90
55173;DHT22;41061;52.822;6.860;2023-09-30T13:37:01;19.70;99.90
55173;DHT22;41061;52.822;6.860;2023-09-30T13:39:27;19.70;99.90
55173;DHT22;41061;52.822;6.860;2023-09-30T13:41:54;19.80;99.90
55173;DHT22;41061;52.822;6.860;2023-09-30T13:44:20;19.80;99.90
55173;DHT22;41061;52.822;6.860;2023-09-30T13:46:47;19.80;99.90
55173;DHT22;41061;52.822;6.860;2023-09-30T13:49:13;19.80;99.90
55173;DHT22;41061;52.822;6.860;2023-09-30T13:51:39;19.80;99.90
55173;DHT22;41061;52.822;6.860;2023-09-30T13:54:05;19.80;99.90
55173;DHT22;41061;52.822;6.860;2023-09-30T13:56:33;19.80;99.90
55173;DHT22;41061;52.822;6.860;2023-09-30T13:58:59;19.80;99.90
55173;DHT22;41061;52.822;6.860;2023-09-30T14:01:25;19.70;99.90
55173;DHT22;41061;52.822;6.860;2023-09-30T14:03:52;19.60;99.90
55173;DHT22;41061;52.822;6.860;2023-09-30T14:06:22;19.50;99.90
55173;DHT22;41061;52.822;6.860;2023-09-30T14:08:48;19.40;99.90
55173;DHT22;41061;52.822;6.860;2023-09-30T14:11:14;19.40;99.90
55173;DHT22;41061;52.822;6.860;2023-09-30T14:13:40;19.30;99.90
55173;DHT22;41061;52.822;6.860;2023-09-30T14:16:06;19.30;99.90
55173;DHT22;41061;52.822;6.860;2023-09-30T14:18:32;19.20;99.90
55173;DHT22;41061;52.822;6.860;2023-09-30T14:20:59;19.10;99.90
55173;DHT22;41061;52.822;6.860;2023-09-30T14:23:26;19.10;99.90
55173;DHT22;41061;52.822;6.860;2023-09-30T14:25:55;19.10;99.90
55173;DHT22;41061;52.822;6.860;2023-09-30T14:28:22;19.10;99.90
55173;DHT22;41061;52.822;6.860;2023-09-30T14:30:48;19.20;99.90
55173;DHT22;41061;52.822;6.860;2023-09-30T14:33:16;19.20;99.90
55173;DHT22;41061;52.822;6.860;2023-09-30T14:35:41;19.20;99.90
55173;DHT22;41061;52.822;6.860;2023-09-30T14:38:09;19.20;99.90
55173;DHT22;41061;52.822;6.860;2023-09-30T14:40:40;19.20;99.90
55173;DHT22;41061;52.822;6.860;2023-09-30T14:43:09;19.10;99.90
55173;DHT22;41061;52.822;6.860;2023-09-30T14:45:39;19.10;99.90
55173;DHT22;41061;52.822;6.860;2023-09-30T14:48:08;19.10;99.90
55173;DHT22;41061;52.822;6.860;2023-09-30T14:50:47;19.10;99.90
55173;DHT22;41061;52.822;6.860;2023-09-30T14:53:12;19.00;99.90
55173;DHT22;41061;52.822;6.860;2023-09-30T14:55:38;19.00;99.90
55173;DHT22;41061;52.822;6.860;2023-09-30T14:58:04;19.00;99.90
55173;DHT22;41061;52.822;6.860;2023-09-30T15:00:29;18.90;99.90
55173;DHT22;41061;52.822;6.860;2023-09-30T15:02:55;18.90;99.90
55173;DHT22;41061;52.822;6.860;2023-09-30T15:05:21;18.90;99.90
55173;DHT22;41061;52.822;6.860;2023-09-30T15:07:46;18.90;99.90
55173;DHT22;41061;52.822;6.860;2023-09-30T15:10:12;19.00;99.90
55173;DHT22;41061;52.822;6.860;2023-09-30T15:12:38;19.00;99.90
55173;DHT22;41061;52.822;6.860;2023-09-30T15:15:04;19.00;99.90
55173;DHT22;41061;52.822;6.860;2023-09-30T15:17:30;19.00;99.90
55173;DHT22;41061;52.822;6.860;2023-09-30T15:19:57;19.10;99.90
55173;DHT22;41061;52.822;6.860;2023-09-30T15:22:23;19.10;99.90
55173;DHT22;41061;52.822;6.860;2023-09-30T15:24:48;19.10;99.90
55173;DHT22;41061;52.822;6.860;2023-09-30T15:27:15;19.10;99.90
55173;DHT22;41061;52.822;6.860;2023-09-30T15:29:40;19.10;99.90
55173;DHT22;41061;52.822;6.860;2023-09-30T15:32:06;19.00;99.90
55173;DHT22;41061;52.822;6.860;2023-09-30T15:34:36;18.90;99.90
55173;DHT22;41061;52.822;6.860;2023-09-30T15:37:06;18.90;99.90
55173;DHT22;41061;52.822;6.860;2023-09-30T15:39:41;18.80;99.90
55173;DHT22;41061;52.822;6.860;2023-09-30T15:42:07;18.80;99.90
55173;DHT22;41061;52.822;6.860;2023-09-30T15:44:40;18.70;99.90
55173;DHT22;41061;52.822;6.860;2023-09-30T15:47:07;18.70;99.90
55173;DHT22;41061;52.822;6.860;2023-09-30T15:49:34;18.70;99.90
55173;DHT22;41061;52.822;6.860;2023-09-30T15:52:03;18.70;99.90
55173;DHT22;41061;52.822;6.860;2023-09-30T15:54:29;18.70;99.90
55173;DHT22;41061;52.822;6.860;2023-09-30T15:56:55;18.60;99.90
55173;DHT22;41061;52.822;6.860;2023-09-30T15:59:20;18.70;99.90
55173;DHT22;41061;52.822;6.860;2023-09-30T16:01:46;18.60;99.90
55173;DHT22;41061;52.822;6.860;2023-09-30T16:04:12;18.50;99.90
55173;DHT22;41061;52.822;6.860;2023-09-30T16:06:41;18.50;99.90
55173;DHT22;41061;52.822;6.860;2023-09-30T16:09:07;18.50;99.90
55173;DHT22;41061;52.822;6.860;2023-09-30T16:11:32;18.50;99.90
55173;DHT22;41061;52.822;6.860;2023-09-30T16:13:58;18.50;99.90
55173;DHT22;41061;52.822;6.860;2023-09-30T16:16:24;18.40;99.90
55173;DHT22;41061;52.822;6.860;2023-09-30T16:18:50;18.40;99.90
55173;DHT22;41061;52.822;6.860;2023-09-30T16:21:15;18.30;99.90
55173;DHT22;41061;52.822;6.860;2023-09-30T16:23:41;18.30;99.90
55173;DHT22;41061;52.822;6.860;2023-09-30T16:26:07;18.30;99.90
55173;DHT22;41061;52.822;6.860;2023-09-30T16:28:32;18.30;99.90
55173;DHT22;41061;52.822;6.860;2023-09-30T16:31:01;18.20;99.90
55173;DHT22;41061;52.822;6.860;2023-09-30T16:33:28;18.20;99.90
55173;DHT22;41061;52.822;6.860;2023-09-30T16:35:55;18.20;99.90
55173;DHT22;41061;52.822;6.860;2023-09-30T16:38:23;18.10;99.90
55173;DHT22;41061;52.822;6.860;2023-09-30T16:40:53;18.10;99.90